Time;durP1;ratioP1;P1;durP2;ratioP2;P2;SDS_P1;SDS_P2;PMS_P1;PMS_P2;Temp;Humidity;BMP_temperature;BMP_pressure;BME280_temperature;BME280_humidity;BME280_pressure;Samples;Min_cycle;Max_cycle;Signal;HPM_P1;HPM_P2
2021/06/18 00:01:07;;;;;;;10.70;5.60;;;16.90;99.90;;;;;;5077912;28;20063;-62
2021/06/18 00:03:33;;;;;;;11.32;7.10;;;16.90;99.90;;;;;;5081558;28;20028;-61
2021/06/18 00:05:58;;;;;;;9.18;6.55;;;16.80;99.90;;;;;;5076124;28;20036;-61
2021/06/18 00:08:24;;;;;;;8.40;6.72;;;16.80;99.90;;;;;;5072503;28;20043;-60
2021/06/18 00:10:50;;;;;;;9.25;6.22;;;16.80;99.90;;;;;;5086112;28;20060;-61
2021/06/18 00:13:16;;;;;;;11.32;7.00;;;16.80;99.90;;;;;;5072815;28;20035;-61
2021/06/18 00:15:41;;;;;;;9.95;6.60;;;16.80;99.90;;;;;;5072671;28;20074;-62
2021/06/18 00:18:07;;;;;;;13.15;6.60;;;16.80;99.90;;;;;;5077561;28;20054;-61
2021/06/18 00:20:33;;;;;;;9.98;6.50;;;16.80;99.90;;;;;;5069917;28;20024;-62
2021/06/18 00:22:58;;;;;;;10.10;6.68;;;16.80;99.90;;;;;;5074670;28;20028;-62
2021/06/18 00:25:24;;;;;;;10.75;6.75;;;16.80;99.90;;;;;;5078204;28;20104;-62
2021/06/18 00:27:52;;;;;;;8.32;6.55;;;16.80;99.90;;;;;;5058629;28;20029;-62
2021/06/18 00:30:18;;;;;;;10.90;6.20;;;16.80;99.90;;;;;;5063814;28;20041;-62
2021/06/18 00:32:44;;;;;;;10.40;6.65;;;16.80;99.90;;;;;;5075517;28;20060;-61
2021/06/18 00:35:10;;;;;;;8.95;6.85;;;16.80;99.90;;;;;;5072881;28;20514;-61
2021/06/18 00:37:36;;;;;;;10.40;7.10;;;16.80;99.90;;;;;;5073132;28;20029;-62
2021/06/18 00:40:04;;;;;;;11.30;7.63;;;16.80;99.90;;;;;;5069093;28;20033;-62
2021/06/18 00:42:30;;;;;;;10.23;7.40;;;16.80;99.90;;;;;;5069462;28;20071;-62
2021/06/18 00:44:56;;;;;;;13.57;7.90;;;16.70;99.90;;;;;;5074587;28;20063;-62
2021/06/18 00:47:24;;;;;;;9.85;7.25;;;16.80;99.90;;;;;;5071582;28;20062;-61
2021/06/18 00:49:51;;;;;;;11.05;7.00;;;16.80;99.90;;;;;;5070283;28;20047;-63
2021/06/18 00:52:17;;;;;;;8.13;5.80;;;16.80;99.90;;;;;;5069292;28;20505;-62
2021/06/18 00:54:45;;;;;;;7.22;5.50;;;16.80;99.90;;;;;;5076897;28;20062;-61
2021/06/18 00:57:10;;;;;;;6.53;5.40;;;16.70;99.90;;;;;;5075680;28;20105;-62
2021/06/18 00:59:36;;;;;;;10.02;5.57;;;16.70;99.90;;;;;;5073288;28;20029;-62
2021/06/18 01:02:02;;;;;;;12.27;6.95;;;16.70;99.90;;;;;;5070373;28;20024;-62
2021/06/18 01:04:30;;;;;;;8.98;7.20;;;16.70;99.90;;;;;;5084320;28;20035;-61
2021/06/18 01:07:18;;;;;;;13.80;7.90;;;16.80;99.90;;;;;;5068473;28;20032;-61
2021/06/18 01:10:02;;;;;;;13.90;7.85;;;16.80;99.90;;;;;;5071002;28;20020;-62
2021/06/18 01:12:35;;;;;;;10.57;7.07;;;16.70;99.90;;;;;;5063041;28;20020;-61
2021/06/18 01:15:08;;;;;;;10.73;6.50;;;16.70;99.90;;;;;;5083878;28;20021;-60
2021/06/18 01:17:46;;;;;;;12.65;6.20;;;16.70;99.90;;;;;;5071996;28;20032;-60
2021/06/18 01:20:32;;;;;;;10.45;6.18;;;16.60;99.90;;;;;;5082051;28;20042;-62
2021/06/18 01:23:00;;;;;;;11.55;6.85;;;16.60;99.90;;;;;;5069319;28;20394;-62
2021/06/18 01:25:48;;;;;;;8.35;6.40;;;16.60;99.90;;;;;;5074308;28;20052;-62
2021/06/18 01:28:25;;;;;;;11.75;6.80;;;16.50;99.90;;;;;;5073830;28;20075;-61
2021/06/18 01:30:51;;;;;;;11.55;6.90;;;16.60;99.90;;;;;;5081591;28;20044;-62
2021/06/18 01:33:22;;;;;;;9.90;6.05;;;16.50;99.90;;;;;;5070579;28;20027;-62
2021/06/18 01:35:52;;;;;;;8.13;5.95;;;16.50;99.90;;;;;;5075079;28;20081;-62
2021/06/18 01:38:19;;;;;;;9.57;6.65;;;16.40;99.90;;;;;;5071166;28;20045;-61
2021/06/18 01:40:49;;;;;;;14.88;6.95;;;16.40;99.90;;;;;;5071880;28;20037;-62
2021/06/18 01:43:20;;;;;;;9.57;6.80;;;16.30;99.90;;;;;;5071306;28;20061;-62
2021/06/18 01:45:47;;;;;;;13.32;6.85;;;16.30;99.90;;;;;;5070325;28;20029;-62
2021/06/18 01:48:16;;;;;;;10.07;7.20;;;16.30;99.90;;;;;;5085751;28;20032;-62
2021/06/18 01:50:42;;;;;;;13.48;7.60;;;16.30;99.90;;;;;;5073490;28;20425;-62
2021/06/18 01:53:17;;;;;;;10.65;7.53;;;16.30;99.90;;;;;;5074095;28;20488;-62
2021/06/18 01:55:46;;;;;;;13.13;8.85;;;16.30;99.90;;;;;;5072965;28;20031;-61
2021/06/18 01:58:13;;;;;;;11.02;7.88;;;16.20;99.90;;;;;;5079245;28;20032;-62
2021/06/18 02:00:41;;;;;;;10.70;8.23;;;16.20;99.90;;;;;;5074322;28;20035;-62
2021/06/18 02:03:10;;;;;;;12.75;7.68;;;16.20;99.90;;;;;;5079078;28;20147;-62
2021/06/18 02:05:38;;;;;;;17.17;8.55;;;16.20;99.90;;;;;;5072394;28;20067;-62
2021/06/18 02:08:06;;;;;;;12.55;9.00;;;16.20;99.90;;;;;;5076628;28;20028;-63
2021/06/18 02:10:34;;;;;;;13.95;9.45;;;16.20;99.90;;;;;;5072860;28;20024;-63
2021/06/18 02:13:04;;;;;;;14.15;9.05;;;16.30;99.90;;;;;;5075044;28;20037;-62
2021/06/18 02:15:31;;;;;;;14.23;9.18;;;16.20;99.90;;;;;;5061182;28;20033;-63
2021/06/18 02:17:57;;;;;;;14.82;9.27;;;16.20;99.90;;;;;;5087746;28;20024;-62
2021/06/18 02:20:24;;;;;;;14.55;8.90;;;16.20;99.90;;;;;;5076216;28;20089;-61
2021/06/18 02:22:51;;;;;;;14.40;9.23;;;16.20;99.90;;;;;;5075418;28;20051;-61
2021/06/18 02:25:18;;;;;;;18.25;9.20;;;16.20;99.90;;;;;;5085617;28;20024;-62
2021/06/18 02:27:44;;;;;;;16.67;9.15;;;16.20;99.90;;;;;;5074227;28;20758;-63
2021/06/18 02:30:13;;;;;;;13.32;8.73;;;16.20;99.90;;;;;;5073473;28;20683;-62
2021/06/18 02:32:39;;;;;;;15.48;8.60;;;16.20;99.90;;;;;;5072920;28;20025;-62
2021/06/18 02:35:06;;;;;;;13.63;8.43;;;16.20;99.90;;;;;;5073473;28;20082;-62
2021/06/18 02:37:31;;;;;;;14.25;8.55;;;16.10;99.90;;;;;;5061069;28;20031;-61
2021/06/18 02:39:57;;;;;;;12.18;8.32;;;16.10;99.90;;;;;;5073259;28;20028;-63
2021/06/18 02:42:24;;;;;;;12.85;7.80;;;16.10;99.90;;;;;;5072189;28;20032;-62
2021/06/18 02:44:50;;;;;;;13.52;8.32;;;16.10;99.90;;;;;;5073059;28;20024;-61
2021/06/18 02:47:38;;;;;;;12.27;7.53;;;16.10;99.90;;;;;;5088088;28;20070;-62
2021/06/18 02:50:28;;;;;;;12.80;7.18;;;16.00;99.90;;;;;;5073438;28;20111;-61
2021/06/18 02:52:59;;;;;;;9.02;7.00;;;16.10;99.90;;;;;;5083745;28;20024;-61
2021/06/18 02:55:33;;;;;;;11.93;6.07;;;16.00;99.90;;;;;;5065176;28;20067;-61
2021/06/18 02:58:06;;;;;;;11.07;6.90;;;16.00;99.90;;;;;;5071391;28;20025;-62
2021/06/18 03:00:33;;;;;;;9.68;6.30;;;16.00;99.90;;;;;;5066117;28;20271;-62
2021/06/18 03:03:03;;;;;;;8.57;6.22;;;16.00;99.90;;;;;;5079212;28;20493;-62
2021/06/18 03:05:30;;;;;;;10.77;6.82;;;16.00;99.90;;;;;;5078826;28;20039;-62
2021/06/18 03:08:02;;;;;;;10.70;6.57;;;15.90;99.90;;;;;;5084333;28;20020;-62
2021/06/18 03:10:33;;;;;;;9.10;7.03;;;16.00;99.90;;;;;;5073983;28;20043;-62
2021/06/18 03:13:09;;;;;;;11.57;6.65;;;15.90;99.90;;;;;;5078915;28;20024;-62
2021/06/18 03:15:40;;;;;;;10.02;5.90;;;16.00;99.90;;;;;;5060397;28;20605;-62
2021/06/18 03:18:07;;;;;;;10.52;6.10;;;16.00;99.90;;;;;;5081275;28;20024;-61
2021/06/18 03:20:35;;;;;;;8.40;5.97;;;16.00;99.90;;;;;;5072255;28;20036;-61
2021/06/18 03:23:03;;;;;;;11.90;7.00;;;15.90;99.90;;;;;;5072268;28;20031;-62
2021/06/18 03:25:34;;;;;;;17.58;7.78;;;15.90;99.90;;;;;;5084818;28;20039;-63
2021/06/18 03:28:00;;;;;;;13.43;7.20;;;15.90;99.90;;;;;;5074669;28;20475;-62
2021/06/18 03:30:26;;;;;;;13.35;7.20;;;15.90;99.90;;;;;;5072277;28;20048;-62
2021/06/18 03:32:53;;;;;;;14.73;7.60;;;15.90;99.90;;;;;;5081246;28;20036;-62
2021/06/18 03:35:21;;;;;;;12.25;7.57;;;15.90;99.90;;;;;;5079923;28;20031;-62
2021/06/18 03:37:48;;;;;;;10.13;7.25;;;15.80;99.90;;;;;;5074139;28;20023;-62
2021/06/18 03:40:14;;;;;;;11.57;6.57;;;15.80;99.90;;;;;;5083314;28;20461;-62
2021/06/18 03:42:41;;;;;;;10.90;6.78;;;15.80;99.90;;;;;;5067568;28;20440;-62
2021/06/18 03:45:08;;;;;;;10.02;6.75;;;15.80;99.90;;;;;;5070058;28;20394;-62
2021/06/18 03:47:36;;;;;;;8.73;6.25;;;15.80;99.90;;;;;;5080094;28;20048;-61
2021/06/18 03:50:04;;;;;;;8.88;6.20;;;15.80;99.90;;;;;;5081149;28;20115;-62
2021/06/18 03:52:30;;;;;;;8.32;6.72;;;15.80;99.90;;;;;;5070027;28;20035;-61
2021/06/18 03:54:57;;;;;;;12.13;6.47;;;15.80;99.90;;;;;;5079429;28;20512;-61
2021/06/18 03:57:23;;;;;;;11.43;7.00;;;15.70;99.90;;;;;;5075414;28;20494;-62
2021/06/18 03:59:50;;;;;;;12.20;6.85;;;15.80;99.90;;;;;;5067386;28;20391;-61
2021/06/18 04:02:17;;;;;;;10.70;6.78;;;15.80;99.90;;;;;;5074948;28;20097;-61
2021/06/18 04:04:44;;;;;;;8.80;6.93;;;15.80;99.90;;;;;;5077120;28;20383;-62
2021/06/18 04:07:11;;;;;;;10.88;7.00;;;15.80;99.90;;;;;;5076924;28;20028;-61
2021/06/18 04:09:37;;;;;;;9.63;6.57;;;15.80;99.90;;;;;;5078621;28;20439;-61
2021/06/18 04:12:05;;;;;;;10.43;6.80;;;15.80;99.90;;;;;;5075941;28;20402;-62
2021/06/18 04:14:32;;;;;;;11.02;6.50;;;15.80;99.90;;;;;;5078668;28;20040;-60
2021/06/18 04:16:58;;;;;;;8.40;6.50;;;15.80;99.90;;;;;;5080031;28;20035;-60
2021/06/18 04:19:24;;;;;;;9.27;7.07;;;15.80;99.90;;;;;;5073341;28;20028;-61
2021/06/18 04:21:51;;;;;;;9.32;6.97;;;15.70;99.90;;;;;;5080082;28;20039;-61
2021/06/18 04:24:17;;;;;;;9.90;7.43;;;15.60;99.90;;;;;;5075303;28;20512;-61
2021/06/18 04:26:44;;;;;;;8.77;7.10;;;15.60;99.90;;;;;;5077722;28;20059;-61
2021/06/18 04:29:11;;;;;;;10.25;7.93;;;15.70;99.90;;;;;;5073505;28;20040;-60
2021/06/18 04:31:37;;;;;;;8.65;6.97;;;15.60;99.90;;;;;;5075322;28;20027;-60
2021/06/18 04:34:07;;;;;;;10.63;7.65;;;15.60;99.90;;;;;;5064872;28;20025;-62
2021/06/18 04:36:33;;;;;;;11.82;8.48;;;15.60;99.90;;;;;;5078965;28;20440;-61
2021/06/18 04:38:59;;;;;;;14.73;8.20;;;15.60;99.90;;;;;;5074064;28;20029;-61
2021/06/18 04:41:27;;;;;;;15.43;8.80;;;15.60;99.90;;;;;;5075443;28;20375;-61
2021/06/18 04:43:53;;;;;;;17.42;10.27;;;15.50;99.90;;;;;;5070982;28;20036;-62
2021/06/18 04:46:19;;;;;;;12.05;8.90;;;15.50;99.90;;;;;;5073269;28;20024;-62
2021/06/18 04:48:44;;;;;;;14.02;9.88;;;15.60;99.90;;;;;;5069477;28;20052;-61
2021/06/18 04:51:10;;;;;;;14.15;9.88;;;15.60;99.90;;;;;;5074515;28;20100;-62
2021/06/18 04:53:36;;;;;;;17.75;10.70;;;15.50;99.90;;;;;;5070735;28;20031;-63
2021/06/18 04:56:03;;;;;;;14.15;10.20;;;15.50;99.90;;;;;;5072637;28;20466;-62
2021/06/18 04:58:29;;;;;;;16.25;11.45;;;15.50;99.90;;;;;;5069055;28;20423;-62
2021/06/18 05:00:55;;;;;;;15.57;11.15;;;15.50;99.90;;;;;;5081364;28;20056;-61
2021/06/18 05:03:21;;;;;;;16.15;11.02;;;15.60;99.90;;;;;;5070103;28;20108;-63
2021/06/18 05:05:47;;;;;;;16.50;10.98;;;15.50;99.90;;;;;;5076808;28;20032;-62
2021/06/18 05:08:13;;;;;;;17.67;12.15;;;15.60;99.90;;;;;;5070019;28;20451;-63
2021/06/18 05:10:39;;;;;;;15.30;11.30;;;15.50;99.90;;;;;;5072156;28;20028;-62
2021/06/18 05:13:04;;;;;;;17.02;10.75;;;15.50;99.90;;;;;;5069981;28;20368;-61
2021/06/18 05:15:30;;;;;;;15.30;10.98;;;15.40;99.90;;;;;;5071748;28;20048;-61
2021/06/18 05:17:56;;;;;;;14.27;9.93;;;15.50;99.90;;;;;;5070087;28;20086;-63
2021/06/18 05:20:22;;;;;;;13.32;9.05;;;15.50;99.90;;;;;;5070852;28;20484;-60
2021/06/18 05:22:48;;;;;;;12.98;9.25;;;15.50;99.90;;;;;;5069719;28;20037;-63
2021/06/18 05:25:15;;;;;;;14.48;9.23;;;15.40;99.90;;;;;;5072608;28;20482;-61
2021/06/18 05:27:41;;;;;;;13.32;8.27;;;15.50;99.90;;;;;;5073934;28;20179;-61
2021/06/18 05:30:09;;;;;;;11.98;8.70;;;15.40;99.90;;;;;;5088307;28;20118;-62
2021/06/18 05:32:34;;;;;;;12.80;8.48;;;15.40;99.90;;;;;;5085483;28;20037;-61
2021/06/18 05:35:00;;;;;;;13.85;9.25;;;15.50;99.90;;;;;;5073366;28;20032;-62
2021/06/18 05:37:26;;;;;;;12.43;8.50;;;15.50;99.90;;;;;;5087245;28;20087;-62
2021/06/18 05:39:52;;;;;;;13.13;8.07;;;15.40;99.90;;;;;;5074492;28;20098;-61
2021/06/18 05:42:18;;;;;;;12.25;7.82;;;15.40;99.90;;;;;;5073824;28;20359;-62
2021/06/18 05:44:44;;;;;;;14.55;6.38;;;15.40;99.90;;;;;;5081731;28;20039;-63
2021/06/18 05:47:09;;;;;;;14.15;6.85;;;15.30;99.90;;;;;;5076102;28;20040;-62
2021/06/18 05:49:35;;;;;;;10.23;6.28;;;15.20;99.90;;;;;;5079309;28;20409;-60
2021/06/18 05:52:01;;;;;;;16.52;7.18;;;15.20;99.90;;;;;;5076937;28;20035;-61
2021/06/18 05:54:26;;;;;;;11.32;6.18;;;15.20;99.90;;;;;;5080084;28;20035;-62
2021/06/18 05:56:53;;;;;;;16.85;6.95;;;15.20;99.90;;;;;;5084205;28;20040;-62
2021/06/18 05:59:19;;;;;;;12.50;6.38;;;15.20;99.90;;;;;;5085536;28;20028;-62
2021/06/18 06:01:44;;;;;;;10.20;5.65;;;15.20;99.90;;;;;;5074069;28;20052;-62
2021/06/18 06:04:10;;;;;;;11.18;5.55;;;15.10;99.90;;;;;;5069222;28;20125;-62
2021/06/18 06:06:36;;;;;;;11.15;5.60;;;15.10;99.90;;;;;;5079357;28;20032;-62
2021/06/18 06:09:02;;;;;;;7.10;4.80;;;15.20;99.90;;;;;;5071881;28;20420;-61
2021/06/18 06:11:30;;;;;;;10.30;5.18;;;15.20;99.90;;;;;;5073635;28;20528;-62
2021/06/18 06:14:04;;;;;;;10.50;4.95;;;15.20;99.90;;;;;;5072714;28;20059;-61
2021/06/18 06:16:31;;;;;;;9.70;5.18;;;15.10;99.90;;;;;;5077620;28;20029;-62
2021/06/18 06:18:56;;;;;;;7.80;4.70;;;15.20;99.90;;;;;;5058031;28;20086;-62
2021/06/18 06:21:23;;;;;;;7.80;4.10;;;15.20;99.90;;;;;;5078123;28;20036;-61
2021/06/18 06:23:50;;;;;;;11.60;4.97;;;15.10;99.90;;;;;;5072713;28;20028;-62
2021/06/18 06:26:16;;;;;;;10.75;4.88;;;15.10;99.90;;;;;;5064570;28;20036;-62
2021/06/18 06:28:42;;;;;;;6.85;4.45;;;15.20;99.90;;;;;;5073759;28;20510;-65
2021/06/18 06:31:08;;;;;;;7.75;4.75;;;15.20;99.90;;;;;;5073484;28;20028;-62
2021/06/18 06:33:33;;;;;;;10.90;4.60;;;15.10;99.90;;;;;;5074787;28;20035;-61
2021/06/18 06:35:59;;;;;;;6.25;3.78;;;15.20;99.90;;;;;;5076868;28;20114;-61
2021/06/18 06:38:24;;;;;;;9.05;4.72;;;15.20;99.90;;;;;;5072839;28;20089;-62
2021/06/18 06:40:51;;;;;;;8.45;4.68;;;15.20;99.90;;;;;;5073510;28;20032;-61
2021/06/18 06:43:19;;;;;;;6.75;4.15;;;15.30;99.90;;;;;;5074457;28;20035;-62
2021/06/18 06:45:45;;;;;;;5.70;3.42;;;15.20;99.90;;;;;;5085815;28;20028;-62
2021/06/18 06:48:11;;;;;;;7.75;3.97;;;15.30;99.90;;;;;;5074524;28;20043;-62
2021/06/18 06:50:37;;;;;;;5.63;3.58;;;15.20;99.90;;;;;;5074057;28;20039;-62
2021/06/18 06:53:03;;;;;;;8.65;3.50;;;15.30;99.90;;;;;;5074399;28;20103;-62
2021/06/18 06:55:28;;;;;;;4.70;3.30;;;15.30;99.90;;;;;;5075039;28;20135;-62
2021/06/18 06:57:54;;;;;;;4.85;3.47;;;15.30;99.90;;;;;;5075641;28;20059;-61
2021/06/18 07:00:21;;;;;;;8.20;3.58;;;15.40;99.90;;;;;;5072453;28;20041;-62
2021/06/18 07:02:46;;;;;;;6.22;3.83;;;15.30;99.90;;;;;;5064974;28;20033;-61
2021/06/18 07:05:13;;;;;;;6.32;3.47;;;15.40;99.90;;;;;;5078357;28;20108;-60
2021/06/18 07:07:38;;;;;;;4.85;3.20;;;15.40;99.90;;;;;;5071852;28;20479;-61
2021/06/18 07:10:06;;;;;;;8.48;3.85;;;15.30;99.90;;;;;;5081681;28;20071;-61
2021/06/18 07:12:32;;;;;;;5.63;3.50;;;15.30;99.90;;;;;;5077711;28;20033;-61
2021/06/18 07:14:58;;;;;;;7.95;3.58;;;15.30;99.90;;;;;;5073731;28;20029;-61
2021/06/18 07:17:25;;;;;;;8.07;3.33;;;15.30;99.90;;;;;;5075986;28;20381;-60
2021/06/18 07:19:52;;;;;;;5.22;3.25;;;15.30;99.90;;;;;;5083607;28;20070;-61
2021/06/18 07:22:20;;;;;;;6.68;2.75;;;15.30;99.90;;;;;;5074331;28;20032;-61
2021/06/18 07:24:46;;;;;;;4.13;2.75;;;15.30;99.90;;;;;;5082574;28;20037;-61
2021/06/18 07:27:14;;;;;;;7.78;3.28;;;15.20;99.90;;;;;;5067220;28;20112;-61
2021/06/18 07:29:41;;;;;;;7.35;4.00;;;15.30;99.90;;;;;;5069817;28;20045;-62
2021/06/18 07:32:08;;;;;;;7.72;4.00;;;15.30;99.90;;;;;;5072427;28;20042;-61
2021/06/18 07:34:34;;;;;;;6.90;4.50;;;15.30;99.90;;;;;;5074852;28;20024;-62
2021/06/18 07:36:59;;;;;;;5.68;4.20;;;15.30;99.90;;;;;;5077210;28;20032;-61
2021/06/18 07:39:25;;;;;;;8.15;4.50;;;15.30;99.90;;;;;;5081279;28;20107;-62
2021/06/18 07:41:51;;;;;;;6.25;4.38;;;15.40;99.90;;;;;;5079383;28;20044;-63
2021/06/18 07:44:17;;;;;;;5.95;4.32;;;15.30;99.90;;;;;;5081495;28;20089;-61
2021/06/18 07:46:43;;;;;;;13.52;4.15;;;15.40;99.90;;;;;;5079873;28;20127;-62
2021/06/18 07:49:08;;;;;;;13.73;5.55;;;15.40;99.90;;;;;;5075646;28;20043;-61
2021/06/18 07:51:34;;;;;;;9.68;3.63;;;15.40;99.90;;;;;;5075997;28;20112;-61
2021/06/18 07:54:00;;;;;;;4.13;2.53;;;15.40;99.90;;;;;;5074156;28;20429;-63
2021/06/18 07:56:29;;;;;;;6.55;2.78;;;15.30;99.90;;;;;;5080583;28;20043;-63
2021/06/18 07:58:55;;;;;;;6.20;2.83;;;15.20;99.90;;;;;;5070512;28;20024;-65
2021/06/18 08:01:21;;;;;;;11.45;2.60;;;15.20;99.90;;;;;;5071975;28;20054;-63
2021/06/18 08:03:47;;;;;;;8.38;2.30;;;15.30;99.90;;;;;;5071511;28;20039;-62
2021/06/18 08:06:13;;;;;;;4.78;2.63;;;15.30;99.90;;;;;;5071456;28;20056;-61
2021/06/18 08:08:40;;;;;;;4.63;2.00;;;15.30;99.90;;;;;;5078898;28;20473;-62
2021/06/18 08:11:06;;;;;;;4.32;2.20;;;15.30;99.90;;;;;;5077434;28;20029;-62
2021/06/18 08:13:32;;;;;;;8.60;3.03;;;15.30;99.90;;;;;;5083184;28;20038;-62
2021/06/18 08:15:57;;;;;;;4.22;1.55;;;15.30;99.90;;;;;;5077537;28;20395;-62
2021/06/18 08:18:23;;;;;;;5.22;2.30;;;15.30;99.90;;;;;;5084122;28;20112;-61
2021/06/18 08:20:48;;;;;;;7.00;2.60;;;15.10;99.90;;;;;;5071535;28;20078;-61
2021/06/18 08:23:14;;;;;;;6.95;2.90;;;15.20;99.90;;;;;;5070562;28;20032;-61
2021/06/18 08:25:40;;;;;;;6.25;2.58;;;15.20;99.90;;;;;;5071517;28;20033;-61
2021/06/18 08:28:07;;;;;;;16.83;2.63;;;15.10;99.90;;;;;;5073537;28;20032;-62
2021/06/18 08:30:33;;;;;;;2.42;1.70;;;15.10;99.90;;;;;;5073789;28;20128;-62
2021/06/18 08:32:59;;;;;;;7.40;2.10;;;15.00;99.90;;;;;;5073714;28;20029;-61
2021/06/18 08:35:27;;;;;;;4.60;2.00;;;14.90;99.90;;;;;;5077946;28;20048;-61
2021/06/18 08:37:53;;;;;;;6.97;1.90;;;14.90;99.90;;;;;;5069801;28;20028;-62
2021/06/18 08:40:19;;;;;;;8.77;1.80;;;14.80;99.90;;;;;;5079224;28;20440;-63
2021/06/18 08:42:48;;;;;;;5.65;2.28;;;14.70;99.90;;;;;;5083706;28;20036;-62
2021/06/18 08:45:14;;;;;;;5.85;1.33;;;14.60;99.90;;;;;;5080134;28;20024;-62
2021/06/18 08:47:40;;;;;;;7.25;2.20;;;14.60;99.90;;;;;;5081297;28;20082;-62
2021/06/18 08:50:07;;;;;;;7.32;2.22;;;14.60;99.90;;;;;;5077557;28;20032;-62
2021/06/18 08:52:36;;;;;;;3.90;1.98;;;14.60;99.90;;;;;;5073626;28;20024;-61
2021/06/18 08:55:02;;;;;;;4.68;1.80;;;14.50;99.90;;;;;;5080114;28;20112;-62
2021/06/18 08:57:28;;;;;;;4.55;1.92;;;14.50;99.90;;;;;;5073111;28;20086;-61
2021/06/18 08:59:54;;;;;;;3.58;1.67;;;14.40;99.90;;;;;;5069984;28;20032;-61
2021/06/18 09:02:19;;;;;;;3.70;1.63;;;14.40;99.90;;;;;;5073929;28;20029;-62
2021/06/18 09:05:10;;;;;;;3.50;1.70;;;14.40;99.90;;;;;;5075397;28;20040;-61
2021/06/18 09:07:59;;;;;;;2.92;1.73;;;14.40;99.90;;;;;;5069614;28;20036;-61
2021/06/18 09:10:38;;;;;;;4.05;2.08;;;14.40;99.90;;;;;;5071426;28;20405;-62
2021/06/18 09:13:12;;;;;;;6.55;1.98;;;14.40;99.90;;;;;;5065002;28;20028;-63
2021/06/18 09:15:42;;;;;;;2.83;1.83;;;14.40;99.90;;;;;;5075605;28;20070;-63
2021/06/18 09:18:22;;;;;;;6.68;2.25;;;14.40;99.90;;;;;;5071786;28;20039;-63
2021/06/18 09:21:01;;;;;;;6.07;2.35;;;14.30;99.90;;;;;;5070696;28;20028;-62
2021/06/18 09:23:49;;;;;;;5.10;2.20;;;14.30;99.90;;;;;;5061203;28;20028;-61
2021/06/18 09:26:35;;;;;;;5.47;2.40;;;14.30;99.90;;;;;;5069213;28;20484;-62
2021/06/18 09:29:06;;;;;;;7.75;2.85;;;14.40;99.90;;;;;;5069808;28;20052;-62
2021/06/18 09:31:36;;;;;;;6.28;2.50;;;14.30;99.90;;;;;;5070783;28;20020;-62
2021/06/18 09:34:04;;;;;;;5.75;2.78;;;14.30;99.90;;;;;;5068407;28;20028;-62
2021/06/18 09:36:30;;;;;;;16.25;3.00;;;14.40;99.90;;;;;;5070210;28;20455;-62
2021/06/18 09:38:56;;;;;;;10.32;2.92;;;14.40;99.90;;;;;;5070238;28;20103;-62
2021/06/18 09:41:33;;;;;;;4.65;2.45;;;14.40;99.90;;;;;;5078450;28;20033;-61
2021/06/18 09:44:01;;;;;;;6.25;2.88;;;14.40;99.90;;;;;;5069361;28;20470;-63
2021/06/18 09:46:50;;;;;;;8.80;2.55;;;14.40;99.90;;;;;;5060293;28;20029;-61
2021/06/18 09:49:31;;;;;;;7.47;2.72;;;14.30;99.90;;;;;;5067985;28;20020;-62
2021/06/18 09:52:02;;;;;;;5.32;2.88;;;14.40;99.90;;;;;;5072870;28;20025;-62
2021/06/18 09:54:31;;;;;;;10.25;3.72;;;14.40;99.90;;;;;;5071012;28;20475;-63
2021/06/18 09:57:34;;;;;;;8.20;3.15;;;14.40;99.90;;;;;;5068052;28;20493;-62
2021/06/18 10:00:04;;;;;;;8.32;3.13;;;14.50;99.90;;;;;;5056424;28;20037;-62
2021/06/18 10:02:37;;;;;;;6.18;2.72;;;14.50;99.90;;;;;;5070715;28;20033;-62
2021/06/18 10:05:08;;;;;;;8.90;3.05;;;14.50;99.90;;;;;;5072209;28;20031;-62
2021/06/18 10:07:35;;;;;;;7.88;2.95;;;14.50;99.90;;;;;;5067311;28;20742;-62
2021/06/18 10:10:03;;;;;;;6.25;3.05;;;14.50;99.90;;;;;;5068146;28;20067;-61
2021/06/18 10:12:30;;;;;;;6.15;2.38;;;14.60;99.90;;;;;;5066247;28;20060;-62
2021/06/18 10:14:57;;;;;;;7.35;2.35;;;14.60;99.90;;;;;;5073227;28;20525;-65
2021/06/18 10:17:22;;;;;;;6.07;2.75;;;14.60;99.90;;;;;;5073380;28;20078;-64
2021/06/18 10:19:48;;;;;;;9.38;3.05;;;14.60;99.90;;;;;;5075853;28;20029;-62
2021/06/18 10:22:19;;;;;;;7.07;1.98;;;14.70;99.90;;;;;;5073212;28;20458;-62
2021/06/18 10:24:54;;;;;;;6.85;2.55;;;14.70;99.90;;;;;;5071405;28;20036;-62
2021/06/18 10:27:28;;;;;;;7.68;2.70;;;14.70;99.90;;;;;;5073453;28;20039;-62
2021/06/18 10:29:55;;;;;;;5.03;2.05;;;14.80;99.90;;;;;;5072287;28;20140;-62
2021/06/18 10:32:27;;;;;;;5.30;2.25;;;14.80;99.90;;;;;;5076288;28;20035;-61
2021/06/18 10:34:56;;;;;;;7.15;2.50;;;14.80;99.90;;;;;;5072623;28;20490;-62
2021/06/18 10:37:25;;;;;;;5.97;2.25;;;14.70;99.90;;;;;;5083155;28;20029;-61
2021/06/18 10:40:03;;;;;;;6.68;2.15;;;14.80;99.90;;;;;;5070287;28;20829;-62
2021/06/18 10:42:29;;;;;;;7.18;2.17;;;14.80;99.90;;;;;;5062034;28;20037;-62
2021/06/18 10:44:55;;;;;;;5.07;1.70;;;14.90;99.90;;;;;;5070059;28;20501;-61
2021/06/18 10:47:23;;;;;;;3.65;1.58;;;14.80;99.90;;;;;;5072581;28;20032;-61
2021/06/18 10:49:51;;;;;;;4.32;1.80;;;14.80;99.90;;;;;;5070403;28;20028;-61
2021/06/18 10:52:23;;;;;;;5.60;1.77;;;14.90;99.90;;;;;;5071515;28;20071;-61
2021/06/18 10:54:52;;;;;;;4.35;1.85;;;14.80;99.90;;;;;;5069495;28;20486;-61
2021/06/18 10:57:23;;;;;;;4.47;1.67;;;14.90;99.90;;;;;;5070412;28;20036;-61
2021/06/18 10:59:52;;;;;;;6.93;2.60;;;14.90;99.90;;;;;;5069092;28;20110;-60
2021/06/18 11:02:20;;;;;;;1.90;1.60;;;14.90;99.90;;;;;;5070107;28;20674;-61
2021/06/18 11:04:51;;;;;;;5.60;2.40;;;14.90;99.90;;;;;;5071162;28;20090;-61
2021/06/18 11:07:20;;;;;;;10.63;4.30;;;14.80;99.90;;;;;;5072166;28;20040;-62
2021/06/18 11:09:50;;;;;;;2.85;1.75;;;14.80;99.90;;;;;;5062401;28;20025;-63
2021/06/18 11:12:40;;;;;;;4.03;1.70;;;14.80;99.90;;;;;;5072475;28;20142;-62
2021/06/18 11:15:06;;;;;;;4.47;2.17;;;14.70;99.90;;;;;;5057460;28;20067;-62
2021/06/18 11:17:37;;;;;;;8.15;2.42;;;14.70;99.90;;;;;;5072477;28;20107;-63
2021/06/18 11:20:07;;;;;;;1.95;1.05;;;14.80;99.90;;;;;;5071712;28;20028;-62
2021/06/18 11:22:47;;;;;;;2.50;1.25;;;14.90;99.90;;;;;;5085340;28;20497;-61
2021/06/18 11:25:48;;;;;;;2.08;1.25;;;14.90;99.90;;;;;;5070508;28;20037;-63
2021/06/18 11:28:26;;;;;;;2.65;1.30;;;15.00;99.90;;;;;;5029209;28;20048;-62
2021/06/18 11:31:36;;;;;;;6.88;2.10;;;15.00;99.90;;;;;;5070756;28;20041;-62
2021/06/18 11:34:02;;;;;;;1.02;0.75;;;15.10;99.90;;;;;;5004862;28;20481;-62
2021/06/18 11:36:37;;;;;;;1.17;1.05;;;15.10;99.90;;;;;;5056455;28;20049;-61
2021/06/18 11:39:03;;;;;;;3.00;1.10;;;15.10;99.90;;;;;;5069917;28;20039;-62
2021/06/18 11:41:40;;;;;;;2.00;1.63;;;15.10;99.90;;;;;;5071569;28;20577;-61
2021/06/18 11:44:06;;;;;;;2.03;1.20;;;15.10;99.90;;;;;;5074409;28;20032;-61
2021/06/18 11:46:34;;;;;;;2.83;2.05;;;15.00;99.90;;;;;;5071581;28;20090;-63
2021/06/18 11:49:18;;;;;;;1.70;1.10;;;15.00;99.90;;;;;;5071221;28;20460;-62
2021/06/18 11:51:44;;;;;;;2.65;0.90;;;15.10;99.90;;;;;;5071758;28;20048;-62
2021/06/18 11:54:21;;;;;;;1.25;0.93;;;15.00;99.90;;;;;;5068441;28;20040;-62
2021/06/18 11:56:47;;;;;;;2.00;1.30;;;15.00;99.90;;;;;;5068150;28;20402;-63
2021/06/18 11:59:14;;;;;;;2.80;1.88;;;14.90;99.90;;;;;;5070122;28;20027;-61
2021/06/18 12:01:40;;;;;;;3.35;1.80;;;15.00;99.90;;;;;;5071385;28;20051;-61
2021/06/18 12:04:15;;;;;;;6.63;3.25;;;15.10;99.90;;;;;;5070353;28;20035;-63
2021/06/18 12:06:41;;;;;;;1.33;1.02;;;15.00;99.90;;;;;;5067869;28;20437;-62
2021/06/18 12:09:15;;;;;;;3.08;1.20;;;15.00;99.90;;;;;;5070738;28;20032;-63
2021/06/18 12:11:46;;;;;;;2.23;1.40;;;15.00;99.90;;;;;;5071342;28;20027;-63
2021/06/18 12:14:15;;;;;;;4.53;1.33;;;14.90;99.90;;;;;;5075298;28;20289;-61
2021/06/18 12:16:46;;;;;;;2.47;1.45;;;15.00;99.90;;;;;;5071213;28;20043;-61
2021/06/18 12:19:31;;;;;;;3.60;1.55;;;14.90;99.90;;;;;;5069553;28;20905;-63
2021/06/18 12:21:59;;;;;;;2.75;1.92;;;14.90;99.90;;;;;;5057398;28;20078;-62
2021/06/18 12:24:35;;;;;;;2.78;1.80;;;15.00;99.90;;;;;;5070075;28;20033;-62
2021/06/18 12:27:04;;;;;;;4.15;1.70;;;14.90;99.90;;;;;;5078809;28;20028;-62
2021/06/18 12:29:30;;;;;;;3.13;1.48;;;14.90;99.90;;;;;;5072569;28;20052;-62
2021/06/18 12:31:58;;;;;;;3.55;1.90;;;15.00;99.90;;;;;;5061587;28;20024;-62
2021/06/18 12:34:24;;;;;;;2.95;1.70;;;15.00;99.90;;;;;;5070214;28;20024;-62
2021/06/18 12:37:01;;;;;;;4.38;1.77;;;15.00;99.90;;;;;;5070451;28;20036;-61
2021/06/18 12:39:27;;;;;;;4.90;1.98;;;15.00;99.90;;;;;;5075166;28;20478;-61
2021/06/18 12:41:53;;;;;;;2.85;1.83;;;15.00;99.90;;;;;;5069360;28;20060;-61
2021/06/18 12:44:29;;;;;;;3.35;1.73;;;15.10;99.90;;;;;;5070103;28;20112;-62
2021/06/18 12:46:59;;;;;;;4.13;1.85;;;15.20;99.90;;;;;;5070172;28;20044;-63
2021/06/18 12:49:29;;;;;;;2.85;1.83;;;15.10;99.90;;;;;;5074083;28;20036;-62
2021/06/18 12:52:09;;;;;;;6.10;2.05;;;15.20;99.90;;;;;;5069553;28;20035;-62